Bradford, Pennsylvania
Current Conditions -  °F | °C
As of 8:53 AM on Monday 24 Nov 2014 (Local Time) from KBFD Reporting Station
Overcast Overcast  
Wind Chill: 56°   Ceiling: 1900
Heat Index: 56°   Visibility: 10mi
Dew Point: 49°   Wind: 15mph
Humidity: 77%   Direction: 190°S
Pressure: 29.45"   Gusts: 23mph
Location:  41.96°N, 78.65°W
Report Text: KBFD 241353Z AUTO 19013G20KT 160V230 10SM BKN019 OVC026 13/09 A2945 RMK AO2 RAB28E42 SLP969 P0000 T01330094
Loading
Personal Weather Stations






























Interactive Weather Map New forecast layout! Learn more

10-Day Weather Forecast

Advertisements
Track Severe Weather on mobile